CCJ weather

La Concordia Airport
Ostuacan, Chiapas, Mexico

Public forecast

Using degrees Celsius for public forecast. Weather courtesy of forecast.io.

METAR (pilot weather report)

Closest report is Carlos Rovirosa Pérez International Airport, 42.3 nm (78.4 km) NE. Retrieved 2019/06/17 17:41 UTC (18 minutes ago):

MMVA 171741Z 00000KT 7SM BKN200 33/25 A2985 RMK SLP105 57007 900 8/002 HZY

TAF (pilot weather forecast)

Forecast is more than 6 hours old.

Closest forecast is Carlos Rovirosa Pérez International Airport, 42.3 nm (78.4 km) NE. Retrieved 2019/06/17 06:16 UTC (12 hours ago):

TAF MMVA 170510Z 1706/1806 00000KT 5SM HZ SCT015 SCT080 TEMPO 1711/1715 4SM HZ BKN012 FM171800 12012KT P6SM SCT015CB BKN080 BKN250 FM180500 04005KT 5SM HZ SCT015 SCT250